createdAt,value
2018-06-12T00:00:33.051Z,19.90
2018-06-12T00:07:59.219Z,19.80
2018-06-12T00:10:28.190Z,19.80
2018-06-12T00:15:25.714Z,19.80
2018-06-12T00:17:54.668Z,19.70
2018-06-12T00:25:20.839Z,19.60
2018-06-12T00:32:46.970Z,19.60
2018-06-12T00:37:44.518Z,19.50
2018-06-12T00:40:13.471Z,19.50
2018-06-12T00:47:39.622Z,19.40
2018-06-12T00:55:05.774Z,19.40
2018-06-12T01:02:31.944Z,19.30
2018-06-12T01:05:00.904Z,19.30
2018-06-12T01:07:29.841Z,19.20
2018-06-12T01:19:53.161Z,19.00
2018-06-12T01:24:50.687Z,18.90
2018-06-12T01:32:16.831Z,18.80
2018-06-12T01:34:45.764Z,18.70
2018-06-12T01:39:45.698Z,18.70
2018-06-12T01:42:14.647Z,18.70
2018-06-12T01:47:12.238Z,18.70
2018-06-12T01:52:09.787Z,18.60
2018-06-12T01:54:38.718Z,18.60
2018-06-12T01:59:36.250Z,18.60
2018-06-12T02:02:05.234Z,18.60
2018-06-12T02:07:02.775Z,18.60
2018-06-12T02:09:31.722Z,18.60
2018-06-12T02:12:00.691Z,18.60
2018-06-12T02:14:29.654Z,18.60
2018-06-12T02:19:27.218Z,18.60
2018-06-12T02:21:56.175Z,18.60
2018-06-12T02:24:25.107Z,18.60
2018-06-12T02:34:19.842Z,18.60
2018-06-12T02:44:14.655Z,18.50
2018-06-12T02:51:40.766Z,18.50
2018-06-12T02:59:06.902Z,18.50
2018-06-12T03:01:35.857Z,18.40
2018-06-12T03:06:33.398Z,18.40
2018-06-12T03:16:28.162Z,18.40
2018-06-12T03:21:25.707Z,18.30
2018-06-12T03:31:20.480Z,18.30
2018-06-12T03:33:49.446Z,18.20
2018-06-12T03:36:18.399Z,18.20
2018-06-12T03:38:47.349Z,18.20
2018-06-12T03:43:44.902Z,18.20
2018-06-12T03:46:13.862Z,18.20
2018-06-12T03:56:09.430Z,18.10
2018-06-12T03:58:38.379Z,18.10
2018-06-12T04:13:30.353Z,18.10
2018-06-12T04:15:59.298Z,18.10
2018-06-12T04:20:56.854Z,18.00
2018-06-12T04:28:22.979Z,18.10
2018-06-12T04:30:51.911Z,18.10
2018-06-12T04:35:49.503Z,18.20
2018-06-12T04:43:15.710Z,18.20
2018-06-12T04:45:44.627Z,18.20
2018-06-12T04:50:42.182Z,18.20
2018-06-12T04:58:08.418Z,18.20
2018-06-12T05:00:37.378Z,18.30
2018-06-12T05:03:06.329Z,18.20
2018-06-12T05:05:35.280Z,18.30
2018-06-12T05:10:32.842Z,18.30
2018-06-12T05:13:01.797Z,18.30
2018-06-12T05:17:59.302Z,18.40
2018-06-12T05:20:28.254Z,18.40
2018-06-12T05:22:57.230Z,18.30
2018-06-12T05:25:26.156Z,18.30
2018-06-12T05:30:23.994Z,18.30
2018-06-12T05:37:50.206Z,18.40
2018-06-12T05:45:16.346Z,18.50
2018-06-12T05:47:45.310Z,18.60
2018-06-12T05:52:42.852Z,18.70
2018-06-12T05:55:11.866Z,18.80
2018-06-12T05:57:40.806Z,18.80
2018-06-12T06:00:09.771Z,18.80
2018-06-12T06:15:01.955Z,19.20
2018-06-12T06:22:28.084Z,19.50
2018-06-12T06:24:56.929Z,19.70
2018-06-12T06:29:54.422Z,19.80
2018-06-12T06:32:23.358Z,19.80
2018-06-12T06:37:20.914Z,19.80
2018-06-12T06:44:47.014Z,19.90
2018-06-12T06:47:15.954Z,20.00
2018-06-12T06:54:42.178Z,19.90
2018-06-12T07:02:08.331Z,19.90
2018-06-12T07:09:34.409Z,19.90
2018-06-12T07:19:29.074Z,19.90
2018-06-12T07:26:55.130Z,20.00
2018-06-12T07:29:24.058Z,20.00
2018-06-12T07:31:52.969Z,20.10
2018-06-12T07:34:21.910Z,20.20
2018-06-12T07:41:48.091Z,20.40
2018-06-12T07:49:14.174Z,20.50
2018-06-12T07:56:40.272Z,20.60
2018-06-12T07:59:09.190Z,20.70
2018-06-12T08:04:06.674Z,20.80
2018-06-12T08:06:35.602Z,20.90
2018-06-12T08:14:03.418Z,21.20
2018-06-12T08:21:29.500Z,21.80
2018-06-12T08:23:58.487Z,22.10
2018-06-12T08:58:53.703Z,23.00
2018-06-12T09:01:22.714Z,23.00
2018-06-12T09:08:49.082Z,22.90
2018-06-12T09:11:18.066Z,22.90
2018-06-12T09:17:15.730Z,23.00
2018-06-12T09:22:13.522Z,23.10
2018-06-12T09:24:42.509Z,23.10
2018-06-12T09:27:11.614Z,23.20
2018-06-12T09:32:09.347Z,23.40
2018-06-12T09:34:38.462Z,23.50
2018-06-12T09:37:07.562Z,23.60
2018-06-12T09:39:36.657Z,23.60
